青森空港の過去48時間の天気

青森空港 (Aomori)

現在時刻: 9/19 08:03 JST (9/18 23:03 UTC) 以下の時間は現地時間です。

過去48時間のMETAR気象情報
時間 風向 風速(m/s) 視程 気温(℃) 湿度(%) 気圧(hPa) 天気現象
19 07:00 3 10km以上 18 88 1015
19 06:40 3 10km以上 17 88 1015
RJSA 182200Z 19005KT 9999 FEW020 18/16 Q1015
RJSA 182140Z 18005KT 9999 FEW020 17/15 Q1015 RMK 1CU020 A2997